Armiesburg, Indiana
Current Conditions -  °F | °C
As of 3:55 AM on Sunday 21 Dec 2014 (Local Time) from KPRG Reporting Station
Haze Haze  
Wind Chill: 29°   Ceiling: 2700
Heat Index: 29°   Visibility: 5mi
Dew Point: 28°   Wind: 3mph
Humidity: 94%   Direction: 120°ESE
Pressure: 30.28"   Gusts: NA
Location:  39.8207°N, 87.3335°W
Report Text: KPRG 210855Z AUTO 12003KT 5SM BR BKN027 M02/M02 A3028 RMK AO2 T10161025
Loading
Personal Weather Stations






























Interactive Weather Map New forecast layout! Learn more

10-Day Weather Forecast

Advertisements
Track Severe Weather on mobile